Time;durP1;ratioP1;P1;durP2;ratioP2;P2;SDS_P1;SDS_P2;PMS_P1;PMS_P2;Temp;Humidity;BMP_temperature;BMP_pressure;BME280_temperature;BME280_humidity;BME280_pressure;Samples;Min_cycle;Max_cycle;Signal;HPM_P1;HPM_P2
2022/04/01 00:02:03;;;;;;;12.20;11.10;;;9.20;55.80;;;;;;20817;6808;117812;-71
2022/04/01 00:04:29;;;;;;;11.45;10.35;;;8.90;56.60;;;;;;20829;6806;117368;-70
2022/04/01 00:06:54;;;;;;;11.27;10.18;;;8.70;57.90;;;;;;20836;6808;117212;-71
2022/04/01 00:09:20;;;;;;;12.13;11.23;;;8.50;58.80;;;;;;20630;6808;278348;-71
2022/04/01 00:11:46;;;;;;;11.85;10.85;;;8.70;59.00;;;;;;20820;6808;117768;-71
2022/04/01 00:14:12;;;;;;;12.63;11.73;;;8.90;57.90;;;;;;20587;6808;310690;-71
2022/04/01 00:16:37;;;;;;;13.30;12.23;;;8.90;57.30;;;;;;20619;6808;278117;-71
2022/04/01 00:19:03;;;;;;;12.10;11.20;;;9.20;56.50;;;;;;20575;6808;303653;-71
2022/04/01 00:21:28;;;;;;;13.25;12.15;;;9.40;56.00;;;;;;20606;6808;311953;-71
2022/04/01 00:23:54;;;;;;;10.95;10.05;;;9.60;55.20;;;;;;20814;6808;144480;-72
2022/04/01 00:26:20;;;;;;;12.83;11.87;;;9.40;55.00;;;;;;20624;6808;289854;-71
2022/04/01 00:28:46;;;;;;;11.07;10.17;;;9.40;54.90;;;;;;20818;6808;117241;-71
2022/04/01 00:31:13;;;;;;;11.52;10.55;;;8.80;56.60;;;;;;20837;6808;117804;-71
2022/04/01 00:33:39;;;;;;;10.50;9.60;;;8.80;56.60;;;;;;20831;6808;117246;-71
2022/04/01 00:36:05;;;;;;;12.17;11.20;;;8.60;57.60;;;;;;20602;6808;340646;-71
2022/04/01 00:38:30;;;;;;;12.40;11.50;;;8.70;57.00;;;;;;20618;6808;307484;-71
2022/04/01 00:40:58;;;;;;;11.87;10.97;;;9.00;56.40;;;;;;20624;6808;278009;-70
2022/04/01 00:43:29;;;;;;;10.70;9.80;;;9.10;55.20;;;;;;20830;6808;117345;-71
2022/04/01 00:45:54;;;;;;;11.68;10.88;;;9.10;55.00;;;;;;20593;6808;307398;-70
2022/04/01 00:48:20;;;;;;;10.02;9.23;;;9.10;55.40;;;;;;20831;6808;117492;-71
2022/04/01 00:50:45;;;;;;;11.33;10.43;;;8.90;55.80;;;;;;20606;6808;336138;-70
2022/04/01 00:53:11;;;;;;;9.90;9.20;;;8.90;55.70;;;;;;20831;6808;117366;-70
2022/04/01 00:55:37;;;;;;;12.10;11.20;;;8.80;56.10;;;;;;20614;6808;277261;-70
2022/04/01 00:58:06;;;;;;;9.80;9.00;;;8.80;56.10;;;;;;20804;6808;149797;-70
2022/04/01 01:00:32;;;;;;;12.00;11.10;;;8.70;56.60;;;;;;20600;6808;312147;-70
2022/04/01 01:02:58;;;;;;;11.98;11.18;;;9.00;56.40;;;;;;20615;6808;311652;-71
2022/04/01 01:05:23;;;;;;;10.53;9.73;;;9.00;55.90;;;;;;20832;6808;117302;-71
2022/04/01 01:07:49;;;;;;;11.43;10.63;;;8.90;56.20;;;;;;20621;6808;281402;-71
2022/04/01 01:10:16;;;;;;;11.10;10.10;;;9.00;56.20;;;;;;20818;6808;117364;-71
2022/04/01 01:12:41;;;;;;;11.40;10.57;;;8.90;56.80;;;;;;20606;6808;336891;-71
2022/04/01 01:15:10;;;;;;;10.05;9.05;;;9.00;56.50;;;;;;20825;6807;118009;-71
2022/04/01 01:17:34;;;;;;;11.30;10.48;;;8.90;56.40;;;;;;20615;6808;287383;-71
2022/04/01 01:20:01;;;;;;;10.07;9.37;;;8.80;57.00;;;;;;20813;6808;117685;-71
2022/04/01 01:22:27;;;;;;;11.32;10.52;;;8.80;56.50;;;;;;20616;6808;324649;-71
2022/04/01 01:24:52;;;;;;;9.30;8.60;;;8.90;56.20;;;;;;20836;6808;117296;-71
2022/04/01 01:27:17;;;;;;;11.40;10.60;;;8.80;56.60;;;;;;20615;6808;301243;-71
2022/04/01 01:29:45;;;;;;;10.10;9.30;;;8.90;57.50;;;;;;20833;6808;118149;-71
2022/04/01 01:32:09;;;;;;;12.07;11.17;;;8.90;56.00;;;;;;20593;6808;336134;-72
2022/04/01 01:34:35;;;;;;;11.50;10.70;;;8.90;56.50;;;;;;20606;6808;306640;-71
2022/04/01 01:37:01;;;;;;;12.13;11.23;;;9.20;56.10;;;;;;20619;6808;277568;-71
2022/04/01 01:39:26;;;;;;;11.68;10.77;;;9.40;55.80;;;;;;20605;6808;309645;-71
2022/04/01 01:41:53;;;;;;;10.90;10.00;;;9.60;54.80;;;;;;20812;6808;117807;-72
2022/04/01 01:44:17;;;;;;;11.63;10.80;;;9.40;55.30;;;;;;20619;6808;283620;-71
2022/04/01 01:46:43;;;;;;;12.23;11.23;;;9.50;54.90;;;;;;20617;6808;307178;-71
2022/04/01 01:49:09;;;;;;;11.98;11.07;;;9.40;54.80;;;;;;20620;6808;312442;-71
2022/04/01 01:57:06;;;;;;;11.45;10.63;;;9.80;53.70;;;;;;20612;6808;307003;-71
2022/04/01 01:59:32;;;;;;;11.07;10.27;;;9.80;53.70;;;;;;20615;6808;341301;-71
2022/04/01 02:01:57;;;;;;;9.45;8.73;;;9.80;53.60;;;;;;20808;6808;117958;-71
2022/04/01 02:04:24;;;;;;;10.93;10.23;;;9.40;54.60;;;;;;20620;6808;277091;-71
2022/04/01 02:06:49;;;;;;;9.23;8.53;;;9.30;54.30;;;;;;20827;6808;117169;-71
2022/04/01 02:09:15;;;;;;;8.63;7.93;;;9.10;55.00;;;;;;20837;6808;117396;-71
2022/04/01 02:11:40;;;;;;;10.27;9.47;;;8.80;56.10;;;;;;20608;6808;279271;-71
2022/04/01 02:14:06;;;;;;;10.00;9.30;;;8.80;56.30;;;;;;20596;6808;305593;-71
2022/04/01 02:16:31;;;;;;;10.33;9.63;;;9.10;55.60;;;;;;20622;6808;277959;-71
2022/04/01 02:18:57;;;;;;;10.60;9.80;;;9.30;55.60;;;;;;20617;6808;285756;-71
2022/04/01 02:21:23;;;;;;;10.60;9.90;;;9.40;54.20;;;;;;20617;6808;279775;-71
2022/04/01 02:23:48;;;;;;;10.02;9.35;;;9.50;54.50;;;;;;20617;6808;278633;-71
2022/04/01 02:26:14;;;;;;;9.75;9.15;;;9.60;54.20;;;;;;20604;6807;278076;-71
2022/04/01 02:28:39;;;;;;;9.65;8.98;;;9.60;53.70;;;;;;20615;6807;311926;-71
2022/04/01 02:31:05;;;;;;;9.10;8.40;;;9.70;53.60;;;;;;20833;6808;121286;-71
2022/04/01 02:33:35;;;;;;;7.83;7.23;;;9.00;55.40;;;;;;20831;6808;116772;-71
2022/04/01 02:36:00;;;;;;;7.50;7.00;;;9.00;55.40;;;;;;20807;6808;117430;-71
2022/04/01 02:38:29;;;;;;;9.30;8.65;;;8.60;56.50;;;;;;20617;6808;312050;-71
2022/04/01 02:40:51;;;;;;;8.47;7.87;;;8.70;56.80;;;;;;20802;6808;121051;-71
2022/04/01 02:43:16;;;;;;;15.70;14.40;;;8.60;56.90;;;;;;20615;6808;307035;-71
2022/04/01 02:45:42;;;;;;;21.93;19.73;;;8.70;56.20;;;;;;20833;6808;117250;-71
2022/04/01 02:48:09;;;;;;;27.40;24.80;;;8.60;56.30;;;;;;20608;6808;277970;-71
2022/04/01 02:50:34;;;;;;;29.67;26.87;;;8.60;56.30;;;;;;20621;6808;278406;-71
2022/04/01 02:52:59;;;;;;;30.63;27.53;;;8.90;56.20;;;;;;20622;6808;319091;-71
2022/04/01 02:55:25;;;;;;;29.77;26.85;;;9.10;55.30;;;;;;20625;6808;345783;-71
2022/04/01 02:57:51;;;;;;;31.37;28.17;;;9.30;54.50;;;;;;20619;6808;277205;-73
2022/04/01 03:00:21;;;;;;;27.83;24.83;;;9.30;54.50;;;;;;20693;6808;118009;-71
2022/04/01 03:02:43;;;;;;;26.77;23.50;;;9.00;55.00;;;;;;20824;6808;117669;-71
2022/04/01 03:05:08;;;;;;;24.02;21.35;;;8.60;56.10;;;;;;20835;6808;117301;-71
2022/04/01 03:07:33;;;;;;;24.73;21.77;;;8.20;57.00;;;;;;20834;6808;117300;-71
2022/04/01 03:10:00;;;;;;;32.33;28.90;;;8.10;58.00;;;;;;20598;6808;326909;-71
2022/04/01 03:12:25;;;;;;;32.20;28.80;;;8.00;57.90;;;;;;20624;6808;306977;-71
2022/04/01 03:14:51;;;;;;;33.35;29.85;;;8.40;57.10;;;;;;20621;6808;277519;-71
2022/04/01 03:17:17;;;;;;;34.55;30.95;;;8.60;56.90;;;;;;20620;6808;309834;-71
2022/04/01 03:19:44;;;;;;;34.13;30.50;;;8.90;56.00;;;;;;20617;6808;277591;-71
2022/04/01 03:22:09;;;;;;;31.60;25.43;;;8.90;56.00;;;;;;20805;6808;117994;-71
2022/04/01 03:24:39;;;;;;;34.67;30.98;;;8.70;56.60;;;;;;20619;6808;281887;-71
2022/04/01 03:27:04;;;;;;;29.03;25.43;;;8.60;56.70;;;;;;20836;6808;117305;-71
2022/04/01 03:29:32;;;;;;;29.33;23.98;;;8.50;57.50;;;;;;20828;6808;117809;-72
2022/04/01 03:31:56;;;;;;;33.63;30.03;;;8.30;58.30;;;;;;20599;6808;308874;-71
2022/04/01 03:34:22;;;;;;;30.97;26.00;;;8.30;58.30;;;;;;20829;6808;117876;-70
2022/04/01 03:36:47;;;;;;;32.83;29.33;;;8.20;58.40;;;;;;20615;6808;277877;-75
2022/04/01 03:39:13;;;;;;;28.57;24.60;;;8.30;58.30;;;;;;20837;6806;117287;-75
2022/04/01 03:41:39;;;;;;;33.70;29.47;;;8.30;58.50;;;;;;20622;6808;320703;-75
2022/04/01 03:44:05;;;;;;;31.02;25.65;;;8.40;58.60;;;;;;20814;6808;117290;-75
2022/04/01 03:46:31;;;;;;;31.03;24.13;;;8.30;58.60;;;;;;20838;6808;117394;-75
2022/04/01 03:49:00;;;;;;;32.73;28.83;;;8.20;58.80;;;;;;20580;6808;303274;-74
2022/04/01 03:51:25;;;;;;;27.20;23.40;;;8.20;58.80;;;;;;20826;6808;117306;-73
2022/04/01 03:53:57;;;;;;;26.73;21.90;;;8.20;58.90;;;;;;20836;6808;117353;-76
2022/04/01 03:56:22;;;;;;;26.67;21.27;;;8.00;59.50;;;;;;20689;6808;123619;-73
2022/04/01 03:58:48;;;;;;;30.90;27.42;;;7.70;60.10;;;;;;20607;6808;277863;-73
2022/04/01 04:01:13;;;;;;;25.80;22.02;;;7.90;59.90;;;;;;20792;6808;117989;-73
2022/04/01 04:03:39;;;;;;;26.20;21.52;;;8.00;59.70;;;;;;20818;6808;121132;-70
2022/04/01 04:06:09;;;;;;;27.93;25.03;;;7.80;60.10;;;;;;20594;6808;284704;-70
2022/04/01 04:08:30;;;;;;;29.73;25.90;;;7.90;59.20;;;;;;20605;6808;283362;-70
2022/04/01 04:10:56;;;;;;;28.30;25.30;;;8.20;58.30;;;;;;20619;6808;341676;-70
2022/04/01 04:13:25;;;;;;;22.30;18.73;;;8.50;57.40;;;;;;20831;6808;117276;-70
2022/04/01 04:15:50;;;;;;;24.07;21.67;;;8.30;57.60;;;;;;20599;6808;307181;-70
2022/04/01 04:18:15;;;;;;;23.20;21.00;;;8.30;57.50;;;;;;20609;6808;277654;-70
2022/04/01 04:20:43;;;;;;;20.90;19.00;;;8.50;56.90;;;;;;20624;6808;278605;-70
2022/04/01 04:23:19;;;;;;;18.90;17.30;;;8.70;56.70;;;;;;20606;6808;277592;-74
2022/04/01 04:25:59;;;;;;;18.77;17.08;;;8.80;56.00;;;;;;20616;6808;311645;-77
2022/04/01 04:28:24;;;;;;;18.65;17.05;;;8.90;54.90;;;;;;20610;6808;334992;-76
2022/04/01 04:30:50;;;;;;;18.10;16.50;;;8.90;54.00;;;;;;20614;6808;309242;-74
2022/04/01 04:33:16;;;;;;;17.87;16.27;;;8.90;54.40;;;;;;20632;6808;314168;-77
2022/04/01 04:35:41;;;;;;;13.80;12.50;;;8.90;54.70;;;;;;20829;6808;117368;-76
2022/04/01 04:38:06;;;;;;;14.07;12.77;;;8.60;55.30;;;;;;20793;6808;117767;-72
2022/04/01 04:40:32;;;;;;;12.73;11.53;;;8.20;56.70;;;;;;20838;6808;118631;-75
2022/04/01 04:42:58;;;;;;;15.07;13.80;;;8.00;58.10;;;;;;20630;6808;278882;-74
2022/04/01 04:45:24;;;;;;;16.10;14.70;;;8.20;57.00;;;;;;20622;6808;320507;-73
2022/04/01 04:47:50;;;;;;;15.13;13.83;;;8.20;57.00;;;;;;20621;6808;277668;-74
2022/04/01 04:50:16;;;;;;;12.02;11.02;;;8.50;56.60;;;;;;20813;6807;117611;-74
2022/04/01 04:52:41;;;;;;;12.90;11.90;;;8.30;56.80;;;;;;20617;6808;287827;-79
2022/04/01 04:55:08;;;;;;;12.52;11.52;;;8.40;55.20;;;;;;20621;6808;336627;-73
2022/04/01 04:57:33;;;;;;;11.50;10.70;;;8.40;55.20;;;;;;20615;6808;280099;-77
2022/04/01 05:00:00;;;;;;;9.30;8.60;;;8.50;54.50;;;;;;20813;6808;118234;-73
2022/04/01 05:02:26;;;;;;;11.50;10.70;;;8.20;55.20;;;;;;20622;6808;292517;-75
2022/04/01 05:05:03;;;;;;;11.13;10.23;;;8.20;55.60;;;;;;20619;6808;277557;-74
2022/04/01 05:07:48;;;;;;;9.50;8.87;;;8.40;54.80;;;;;;20624;6808;278080;-73
2022/04/01 05:10:16;;;;;;;8.13;7.53;;;8.40;53.70;;;;;;20797;6808;117471;-72
2022/04/01 05:12:42;;;;;;;6.37;5.87;;;8.10;54.60;;;;;;20837;6808;117334;-76
2022/04/01 05:15:08;;;;;;;7.43;7.00;;;7.70;56.00;;;;;;20613;6808;307913;-73
2022/04/01 05:17:37;;;;;;;5.80;5.50;;;7.80;60.90;;;;;;20826;6808;116881;-74
2022/04/01 05:20:03;;;;;;;4.67;4.40;;;7.90;61.30;;;;;;20790;6808;117063;-71
2022/04/01 05:22:36;;;;;;;6.50;6.10;;;7.90;62.60;;;;;;20599;6808;277045;-71
2022/04/01 05:25:02;;;;;;;6.77;6.27;;;8.30;61.00;;;;;;20815;6808;116923;-72
2022/04/01 05:27:30;;;;;;;6.83;6.43;;;8.50;60.50;;;;;;20621;6808;277481;-77
2022/04/01 05:30:05;;;;;;;5.93;5.53;;;8.70;57.90;;;;;;20813;6808;117895;-73
2022/04/01 05:32:33;;;;;;;6.27;5.87;;;8.50;58.50;;;;;;20728;6808;121068;-73
2022/04/01 05:34:57;;;;;;;6.75;6.35;;;8.50;58.50;;;;;;20596;6808;307780;-75
2022/04/01 05:37:25;;;;;;;5.53;5.23;;;8.70;58.30;;;;;;20828;6808;117108;-75
2022/04/01 05:39:48;;;;;;;5.30;5.00;;;8.70;57.50;;;;;;20825;6808;117227;-80
2022/04/01 05:42:13;;;;;;;7.50;7.10;;;8.50;58.70;;;;;;20599;6808;336002;-75
2022/04/01 05:44:39;;;;;;;7.07;6.57;;;8.70;57.20;;;;;;20834;6808;116944;-71
2022/04/01 05:47:06;;;;;;;7.10;6.70;;;8.70;56.60;;;;;;20614;6808;277517;-74
2022/04/01 05:49:30;;;;;;;6.80;6.40;;;8.80;54.90;;;;;;20827;6808;116878;-75
2022/04/01 05:51:56;;;;;;;5.70;5.30;;;8.80;55.70;;;;;;20816;6808;117030;-78
2022/04/01 05:54:21;;;;;;;6.20;5.85;;;8.50;56.30;;;;;;20834;6808;117098;-74
2022/04/01 05:56:47;;;;;;;7.07;6.57;;;8.30;57.20;;;;;;20833;6808;116861;-73
2022/04/01 05:59:12;;;;;;;7.20;6.80;;;8.20;57.70;;;;;;20619;6808;340178;-73
2022/04/01 06:01:48;;;;;;;6.85;6.45;;;8.40;57.40;;;;;;20825;6807;117309;-73
2022/04/01 06:04:28;;;;;;;5.53;5.23;;;8.50;58.30;;;;;;20804;6808;117372;-73
2022/04/01 06:07:00;;;;;;;8.25;7.75;;;8.50;58.10;;;;;;20626;6808;336790;-73
2022/04/01 06:09:48;;;;;;;7.23;6.83;;;8.70;55.70;;;;;;20027;6808;307318;-73
2022/04/01 06:12:36;;;;;;;6.20;5.80;;;9.10;54.10;;;;;;20823;6808;117924;-73
2022/04/01 06:15:02;;;;;;;5.93;5.57;;;9.00;54.70;;;;;;20820;6808;116925;-73
2022/04/01 06:17:42;;;;;;;6.63;6.23;;;8.50;55.70;;;;;;20797;6808;120716;-74
2022/04/01 06:20:07;;;;;;;9.97;9.30;;;8.50;55.70;;;;;;20564;6808;289579;-73
2022/04/01 06:22:34;;;;;;;10.23;9.43;;;9.00;54.20;;;;;;20611;6808;307875;-73
2022/04/01 06:25:10;;;;;;;9.37;8.67;;;9.00;54.20;;;;;;20799;6808;117546;-72
2022/04/01 06:27:35;;;;;;;20.97;18.87;;;9.00;54.20;;;;;;20806;6808;117732;-73
2022/04/01 06:30:03;;;;;;;12.43;11.30;;;8.70;54.90;;;;;;20779;6808;117745;-73
2022/04/01 06:32:29;;;;;;;13.03;12.03;;;8.30;55.10;;;;;;20574;6808;309188;-73
2022/04/01 06:35:00;;;;;;;9.10;8.50;;;8.40;54.20;;;;;;20821;6808;117826;-74
2022/04/01 06:37:30;;;;;;;8.40;7.80;;;8.30;54.30;;;;;;20835;6808;117430;-73
2022/04/01 06:40:06;;;;;;;10.80;10.00;;;8.00;54.50;;;;;;20600;6808;306250;-77
2022/04/01 06:42:32;;;;;;;11.30;10.50;;;8.20;52.90;;;;;;20610;6808;307093;-73
2022/04/01 06:44:58;;;;;;;11.60;10.77;;;8.20;52.90;;;;;;20824;6808;117532;-74
2022/04/01 06:47:23;;;;;;;13.77;12.80;;;8.00;53.10;;;;;;20617;6808;307436;-74
2022/04/01 06:49:49;;;;;;;11.07;10.18;;;7.90;53.30;;;;;;20831;6808;117219;-74
2022/04/01 06:52:16;;;;;;;12.05;11.25;;;7.80;53.70;;;;;;20608;6808;306669;-73
2022/04/01 06:54:41;;;;;;;10.90;10.20;;;7.90;52.90;;;;;;20619;6808;336973;-73
2022/04/01 06:57:08;;;;;;;11.03;10.13;;;7.90;52.90;;;;;;20837;6808;117339;-74
2022/04/01 06:59:34;;;;;;;11.50;10.70;;;7.60;53.10;;;;;;20634;6808;277587;-76
2022/04/01 07:02:00;;;;;;;10.00;9.20;;;7.50;54.60;;;;;;20818;6808;123319;-74
2022/04/01 07:04:26;;;;;;;11.47;10.67;;;7.50;54.60;;;;;;20623;6808;293592;-74
2022/04/01 07:06:52;;;;;;;9.20;8.50;;;7.50;54.70;;;;;;20834;6808;117301;-74
2022/04/01 07:09:18;;;;;;;10.93;10.23;;;7.50;55.10;;;;;;20617;6808;307447;-74
2022/04/01 07:11:43;;;;;;;10.20;9.30;;;7.50;54.50;;;;;;20833;6808;117311;-74
2022/04/01 07:14:08;;;;;;;11.80;11.00;;;7.40;54.70;;;;;;20602;6807;339805;-74
2022/04/01 07:16:34;;;;;;;11.73;10.93;;;7.50;54.70;;;;;;20622;6808;304797;-74
2022/04/01 07:19:01;;;;;;;12.25;11.45;;;7.70;53.50;;;;;;20626;6808;311100;-75
2022/04/01 07:21:26;;;;;;;11.50;10.70;;;7.90;53.00;;;;;;20618;6808;279630;-72
2022/04/01 07:23:52;;;;;;;12.07;11.07;;;8.10;52.90;;;;;;20622;6808;303939;-74
2022/04/01 07:26:17;;;;;;;10.23;9.43;;;8.10;52.90;;;;;;20701;6808;117571;-72
2022/04/01 07:28:43;;;;;;;11.02;10.15;;;7.80;53.40;;;;;;20848;6808;117439;-73
2022/04/01 07:33:38;;;;;;;12.10;11.30;;;7.50;53.90;;;;;;19948;6808;310981;-73
2022/04/01 07:36:04;;;;;;;11.00;10.20;;;7.70;53.60;;;;;;20827;6808;118454;-73
2022/04/01 07:38:31;;;;;;;12.70;11.80;;;7.50;53.80;;;;;;20630;6808;307986;-73
2022/04/01 07:40:56;;;;;;;10.73;9.93;;;7.50;53.80;;;;;;20827;6808;117270;-73
2022/04/01 07:43:20;;;;;;;10.73;9.93;;;7.40;54.30;;;;;;20825;6808;117322;-72
2022/04/01 07:45:46;;;;;;;13.10;12.13;;;7.10;55.40;;;;;;20616;6808;336634;-72
2022/04/01 07:48:11;;;;;;;12.67;11.87;;;7.30;55.60;;;;;;20608;6808;278395;-75
2022/04/01 07:50:37;;;;;;;10.60;9.85;;;7.50;54.70;;;;;;20830;6808;117311;-72
2022/04/01 07:53:03;;;;;;;10.80;9.83;;;7.50;54.70;;;;;;20824;6808;117191;-72
2022/04/01 07:55:29;;;;;;;12.15;11.35;;;7.20;55.30;;;;;;20623;6808;307262;-73
2022/04/01 07:57:56;;;;;;;12.30;11.50;;;7.30;55.70;;;;;;20604;6808;324521;-73
2022/04/01 08:00:19;;;;;;;12.63;11.83;;;7.50;55.10;;;;;;20623;6808;277702;-73
2022/04/01 08:02:47;;;;;;;11.00;10.20;;;7.70;54.70;;;;;;20843;6808;117582;-73
2022/04/01 08:05:12;;;;;;;8.23;7.67;;;7.70;54.70;;;;;;20838;6808;117273;-71
2022/04/01 08:07:37;;;;;;;8.70;8.10;;;7.40;56.00;;;;;;20827;6808;117034;-74
2022/04/01 08:10:04;;;;;;;10.90;10.20;;;7.30;57.50;;;;;;20599;6808;307472;-74
2022/04/01 08:12:28;;;;;;;10.85;10.25;;;7.50;57.90;;;;;;20620;6808;307166;-74
2022/04/01 08:14:54;;;;;;;11.07;10.47;;;7.90;57.00;;;;;;20610;6808;282372;-72
2022/04/01 08:17:20;;;;;;;9.80;9.17;;;8.20;57.40;;;;;;20838;6808;117326;-73
2022/04/01 08:19:45;;;;;;;9.70;9.03;;;8.20;57.30;;;;;;20828;6808;117509;-73
2022/04/01 08:22:11;;;;;;;9.80;9.10;;;8.00;58.20;;;;;;20808;6808;117963;-72
2022/04/01 08:24:37;;;;;;;9.90;9.10;;;7.80;59.20;;;;;;20820;6807;117522;-76
2022/04/01 08:27:03;;;;;;;10.33;9.53;;;7.70;59.20;;;;;;20828;6808;116959;-78
2022/04/01 08:29:29;;;;;;;9.83;9.13;;;7.50;60.00;;;;;;20834;6808;121349;-76
2022/04/01 08:31:54;;;;;;;11.03;10.20;;;7.50;61.20;;;;;;20809;6808;117962;-73
2022/04/01 08:34:20;;;;;;;11.93;11.07;;;7.50;61.10;;;;;;20620;6808;278081;-73
2022/04/01 08:36:46;;;;;;;12.50;11.47;;;8.30;58.80;;;;;;20618;6808;306255;-76
2022/04/01 08:39:13;;;;;;;12.37;11.57;;;8.30;58.30;;;;;;20621;6808;307964;-80
2022/04/01 08:41:39;;;;;;;15.57;12.27;;;9.00;56.70;;;;;;20619;6808;336959;-76
2022/04/01 08:44:05;;;;;;;75.57;18.63;;;9.00;56.70;;;;;;20820;6808;117857;-76
2022/04/01 08:46:31;;;;;;;20.83;13.87;;;9.00;56.80;;;;;;20622;6808;307984;-76
2022/04/01 08:48:56;;;;;;;12.97;11.77;;;9.00;54.40;;;;;;20626;6808;336516;-71
2022/04/01 08:51:22;;;;;;;11.67;10.67;;;9.10;55.00;;;;;;20842;6808;117287;-75
2022/04/01 08:53:49;;;;;;;12.47;11.27;;;9.00;55.30;;;;;;20628;6808;278067;-77
2022/04/01 08:56:14;;;;;;;13.80;12.50;;;8.90;55.20;;;;;;20607;6808;282468;-76
2022/04/01 08:58:40;;;;;;;12.43;11.43;;;9.20;53.60;;;;;;20613;6808;281280;-77
2022/04/01 09:01:06;;;;;;;12.60;11.70;;;9.30;54.30;;;;;;20617;6808;307411;-75
2022/04/01 09:03:33;;;;;;;10.83;10.13;;;9.10;53.50;;;;;;20833;6808;117781;-73
2022/04/01 09:05:58;;;;;;;10.90;10.10;;;9.10;53.50;;;;;;20814;6808;117661;-76
2022/04/01 09:08:30;;;;;;;12.85;12.05;;;8.70;54.50;;;;;;20610;6808;307303;-76
2022/04/01 09:11:07;;;;;;;12.67;11.77;;;8.70;55.20;;;;;;20842;6808;121275;-73
2022/04/01 09:13:42;;;;;;;13.57;12.67;;;8.60;55.00;;;;;;20632;6808;307557;-73
2022/04/01 09:16:08;;;;;;;13.33;12.53;;;8.70;55.60;;;;;;20592;6808;306680;-73
2022/04/01 09:18:33;;;;;;;13.85;12.75;;;9.00;54.60;;;;;;20623;6808;307060;-72
2022/04/01 09:20:59;;;;;;;12.27;11.37;;;9.20;54.30;;;;;;20830;6808;118223;-75
2022/04/01 09:23:24;;;;;;;13.97;13.03;;;9.10;54.70;;;;;;20622;6808;310809;-79
2022/04/01 09:25:50;;;;;;;13.77;12.88;;;9.10;53.60;;;;;;20599;6808;340555;-76
2022/04/01 09:28:32;;;;;;;13.30;12.40;;;9.30;53.90;;;;;;20566;6808;308683;-78
2022/04/01 09:31:06;;;;;;;13.10;12.20;;;9.40;53.10;;;;;;20585;6808;282350;-73
2022/04/01 09:33:43;;;;;;;11.80;11.10;;;9.60;53.00;;;;;;20604;6808;319262;-69
2022/04/01 09:36:18;;;;;;;11.40;10.60;;;9.60;52.20;;;;;;20822;6807;117183;-70
2022/04/01 09:38:57;;;;;;;9.77;9.07;;;9.30;52.90;;;;;;20834;6808;117690;-71
2022/04/01 09:41:39;;;;;;;9.87;9.13;;;8.90;54.20;;;;;;20812;6808;116915;-71
2022/04/01 09:44:18;;;;;;;23.57;14.37;;;8.60;55.30;;;;;;20599;6808;281880;-77
2022/04/01 09:46:40;;;;;;;10.40;9.60;;;8.70;54.70;;;;;;20810;6808;121506;-73
2022/04/01 09:49:05;;;;;;;9.30;8.53;;;8.60;55.00;;;;;;20801;6808;117124;-72
2022/04/01 09:51:31;;;;;;;14.40;10.52;;;8.40;55.40;;;;;;20834;6808;116977;-70
2022/04/01 09:54:02;;;;;;;11.67;10.53;;;8.20;55.80;;;;;;20602;6808;307875;-74
2022/04/01 09:56:43;;;;;;;11.27;10.27;;;8.20;55.80;;;;;;20599;6808;308048;-71
2022/04/01 09:59:08;;;;;;;9.20;8.40;;;8.60;55.30;;;;;;20830;6808;117299;-74
2022/04/01 10:01:34;;;;;;;10.35;9.75;;;8.50;55.10;;;;;;20614;6808;291076;-70
2022/04/01 10:03:59;;;;;;;9.77;9.13;;;8.60;53.70;;;;;;20823;6808;128476;-70
2022/04/01 10:06:25;;;;;;;10.68;10.07;;;8.40;53.50;;;;;;20632;6808;282244;-72
2022/04/01 10:08:51;;;;;;;10.20;9.60;;;8.40;53.10;;;;;;20627;6808;320687;-71
2022/04/01 10:11:17;;;;;;;8.83;8.23;;;8.30;52.90;;;;;;20839;6808;122808;-70
2022/04/01 10:13:42;;;;;;;8.70;8.20;;;8.30;52.90;;;;;;20611;6808;307883;-71
2022/04/01 10:16:09;;;;;;;7.90;7.40;;;8.10;52.80;;;;;;20801;6808;116950;-70
2022/04/01 10:18:34;;;;;;;7.33;6.93;;;8.10;52.80;;;;;;20835;6808;117106;-74
2022/04/01 10:21:01;;;;;;;8.32;7.72;;;7.70;53.70;;;;;;20834;6808;117368;-70
2022/04/01 10:23:25;;;;;;;7.03;6.62;;;7.40;54.50;;;;;;20832;6808;116930;-70
2022/04/01 10:26:04;;;;;;;9.87;9.23;;;7.20;55.10;;;;;;20629;6808;306826;-71
2022/04/01 10:28:29;;;;;;;10.50;9.80;;;7.40;54.80;;;;;;20613;6808;307495;-71
2022/04/01 10:30:58;;;;;;;9.27;8.67;;;7.70;54.80;;;;;;20839;6808;117096;-76
2022/04/01 10:33:27;;;;;;;10.53;9.83;;;7.60;54.90;;;;;;20623;6808;277629;-78
2022/04/01 10:35:54;;;;;;;10.07;9.37;;;7.70;55.20;;;;;;20603;6808;305730;-72
2022/04/01 10:38:18;;;;;;;10.32;9.73;;;8.00;54.00;;;;;;20620;6808;303592;-72
2022/04/01 10:40:44;;;;;;;9.30;8.60;;;8.10;53.80;;;;;;20824;6808;124018;-74
2022/04/01 10:43:12;;;;;;;11.10;10.30;;;7.90;54.20;;;;;;20610;6808;336488;-72
2022/04/01 10:45:37;;;;;;;9.57;9.07;;;7.90;54.20;;;;;;20609;6808;311128;-75
2022/04/01 10:53:58;;;;;;;9.90;9.30;;;7.50;54.60;;;;;;20600;6808;312785;-77
2022/04/01 10:59:48;;;;;;;9.20;8.70;;;7.80;54.00;;;;;;20599;6808;291220;-80
2022/04/01 11:02:15;;;;;;;8.43;7.93;;;8.00;53.00;;;;;;20797;6808;116931;-73
2022/04/01 11:04:39;;;;;;;11.53;10.73;;;7.80;53.70;;;;;;20600;6808;311551;-77
2022/04/01 11:07:21;;;;;;;8.20;7.70;;;7.80;54.60;;;;;;20829;6808;117683;-70
2022/04/01 11:09:57;;;;;;;9.23;8.73;;;7.60;55.00;;;;;;20007;6808;277506;-71
2022/04/01 11:12:41;;;;;;;9.80;9.20;;;7.70;54.90;;;;;;20618;6808;315388;-69
2022/04/01 11:15:12;;;;;;;8.60;8.10;;;7.90;54.80;;;;;;20600;6808;315390;-74
2022/04/01 11:17:37;;;;;;;8.10;7.50;;;7.80;53.70;;;;;;20841;6808;117465;-75
2022/04/01 11:20:12;;;;;;;7.80;7.30;;;7.80;53.70;;;;;;20827;6808;117141;-68
2022/04/01 11:22:44;;;;;;;7.57;7.07;;;7.40;54.90;;;;;;20832;6808;117385;-70
2022/04/01 11:25:23;;;;;;;7.67;7.07;;;7.00;56.80;;;;;;20823;6808;121261;-70
2022/04/01 11:28:01;;;;;;;9.60;9.00;;;6.90;56.70;;;;;;20342;6808;309892;-74
2022/04/01 11:30:27;;;;;;;9.40;8.90;;;7.10;54.70;;;;;;20575;6808;302635;-72
2022/04/01 11:32:59;;;;;;;7.13;6.50;;;7.40;55.60;;;;;;20816;6808;117371;-72
2022/04/01 11:35:25;;;;;;;6.53;6.07;;;7.30;55.50;;;;;;20815;6808;117546;-68
2022/04/01 11:37:50;;;;;;;7.43;7.03;;;7.00;56.00;;;;;;20593;6808;277709;-71
2022/04/01 11:40:16;;;;;;;7.18;6.78;;;7.00;56.30;;;;;;20597;6808;281861;-71
2022/04/01 11:42:58;;;;;;;7.43;7.03;;;7.30;55.00;;;;;;20814;6808;121022;-70
2022/04/01 11:45:21;;;;;;;7.37;6.97;;;7.20;54.60;;;;;;20799;6808;118318;-69
2022/04/01 11:47:46;;;;;;;7.23;6.83;;;6.80;54.80;;;;;;20619;6808;277999;-70
2022/04/01 11:50:12;;;;;;;7.78;7.37;;;6.90;54.80;;;;;;20584;6808;308257;-69
2022/04/01 11:52:40;;;;;;;6.40;6.07;;;7.10;55.80;;;;;;20815;6808;117792;-70
2022/04/01 11:55:13;;;;;;;12.05;11.25;;;7.00;56.10;;;;;;20581;6808;277528;-69
2022/04/01 11:57:38;;;;;;;7.07;6.67;;;7.10;56.10;;;;;;20805;6808;118160;-68
2022/04/01 12:00:17;;;;;;;3.87;3.67;;;6.90;57.50;;;;;;20806;6807;117419;-67
2022/04/01 12:02:43;;;;;;;4.70;4.50;;;6.90;57.50;;;;;;20601;6808;277830;-69
2022/04/01 12:05:09;;;;;;;4.40;4.20;;;7.10;56.90;;;;;;20601;6808;306987;-70
2022/04/01 12:10:20;;;;;;;3.67;3.57;;;7.30;55.40;;;;;;20610;6808;276844;-75
2022/04/01 12:12:51;;;;;;;3.53;3.33;;;7.40;54.90;;;;;;20603;6808;334406;-71
2022/04/01 12:15:17;;;;;;;3.07;2.90;;;7.50;54.90;;;;;;20756;6808;117367;-72
2022/04/01 12:17:49;;;;;;;3.40;3.30;;;7.40;54.90;;;;;;20607;6808;297293;-72
2022/04/01 12:20:15;;;;;;;2.77;2.57;;;7.40;55.60;;;;;;20799;6808;117605;-72
2022/04/01 12:22:40;;;;;;;2.90;2.80;;;7.30;56.20;;;;;;20810;6808;117987;-77
2022/04/01 12:25:06;;;;;;;3.20;3.10;;;7.10;56.90;;;;;;20611;6808;307039;-71
2022/04/01 12:27:31;;;;;;;3.10;3.00;;;7.20;56.80;;;;;;20612;6808;311181;-71
2022/04/01 12:29:58;;;;;;;2.83;2.73;;;7.60;55.50;;;;;;20825;6808;120835;-68
2022/04/01 12:32:24;;;;;;;3.60;3.50;;;7.50;55.60;;;;;;20832;6808;122921;-69
2022/04/01 12:34:49;;;;;;;5.30;5.00;;;7.30;56.20;;;;;;20607;6808;307862;-68
2022/04/01 12:37:14;;;;;;;5.40;5.20;;;7.40;56.20;;;;;;20603;6808;336025;-69
2022/04/01 12:39:44;;;;;;;4.03;3.83;;;7.70;56.20;;;;;;20608;6808;337247;-70
2022/04/01 12:42:08;;;;;;;4.85;4.65;;;8.00;54.70;;;;;;20786;6808;121489;-70
2022/04/01 12:44:34;;;;;;;2.70;2.60;;;7.90;55.00;;;;;;20602;6808;326343;-70
2022/04/01 12:47:03;;;;;;;3.17;3.08;;;7.70;54.80;;;;;;20824;6808;118565;-70
2022/04/01 12:49:26;;;;;;;2.30;2.20;;;7.70;54.80;;;;;;20823;6808;119561;-71
2022/04/01 12:51:54;;;;;;;4.43;4.12;;;7.40;55.40;;;;;;20812;6808;117377;-70
2022/04/01 12:54:33;;;;;;;3.93;3.53;;;7.20;55.60;;;;;;20819;6808;119082;-70
2022/04/01 12:56:58;;;;;;;2.80;2.70;;;6.90;56.30;;;;;;20608;6808;306561;-70